Private Wetterstation Sandau
Wetterdaten: Montag, 09.07.2012
Datum Zeit Temp. A. Feuchte A. Luftdruck Regen Wind Richtung Richtung Taupunkt Windchill
09.07.2012 00:01 18,6 C 74 % 1008,7 hPa 0,0 l/m 4,0 km/h (1 Bft) S-SW 202 13,9 C 18,6 C
09.07.2012 00:06 18,5 C 74 % 1008,8 hPa 0,0 l/m 6,1 km/h (2 Bft) SW 225 13,8 C 18,5 C
09.07.2012 00:11 18,4 C 74 % 1008,7 hPa 0,0 l/m 7,2 km/h (2 Bft) S-SW 202 13,7 C 18,4 C
09.07.2012 00:16 18,3 C 74 % 1008,7 hPa 0,0 l/m 3,2 km/h (1 Bft) SW 225 13,6 C 18,3 C
09.07.2012 00:21 18,3 C 75 % 1008,7 hPa 0,0 l/m 3,2 km/h (1 Bft) SW 225 13,8 C 18,3 C
09.07.2012 00:26 18,2 C 75 % 1008,9 hPa 0,0 l/m 6,1 km/h (2 Bft) SW 225 13,7 C 18,2 C
09.07.2012 00:31 18,1 C 75 % 1009,0 hPa 0,0 l/m 5,8 km/h (2 Bft) S-SW 202 13,6 C 18,1 C
09.07.2012 00:36 18,1 C 76 % 1009,1 hPa 0,0 l/m 4,7 km/h (1 Bft) SW 225 13,8 C 18,1 C
09.07.2012 00:41 18,1 C 76 % 1008,9 hPa 0,0 l/m 2,5 km/h (1 Bft) S 180 13,8 C 18,1 C
09.07.2012 00:46 18,2 C 76 % 1008,8 hPa 0,0 l/m 10,4 km/h (2 Bft) S-SW 202 13,9 C 18,2 C
09.07.2012 00:51 18,3 C 76 % 1008,8 hPa 0,0 l/m 5,8 km/h (2 Bft) SW 225 14,0 C 18,3 C
09.07.2012 00:56 18,4 C 76 % 1008,9 hPa 0,0 l/m 6,1 km/h (2 Bft) S-SW 202 14,1 C 18,4 C
09.07.2012 01:01 18,4 C 76 % 1008,9 hPa 0,0 l/m 9,0 km/h (2 Bft) S-SW 202 14,1 C 18,4 C
09.07.2012 01:06 18,4 C 76 % 1008,9 hPa 0,0 l/m 7,9 km/h (2 Bft) S 180 14,1 C 18,4 C
09.07.2012 01:11 18,5 C 76 % 1008,9 hPa 0,0 l/m 11,5 km/h (2 Bft) W-SW 247 14,2 C 18,5 C
09.07.2012 01:16 18,5 C 76 % 1009,1 hPa 0,0 l/m 6,8 km/h (2 Bft) SW 225 14,2 C 18,5 C
09.07.2012 01:21 18,5 C 76 % 1009,1 hPa 0,0 l/m 8,6 km/h (2 Bft) W-SW 247 14,2 C 18,5 C
09.07.2012 01:26 18,4 C 76 % 1009,2 hPa 0,0 l/m 5,8 km/h (2 Bft) W-SW 247 14,1 C 18,4 C
09.07.2012 01:31 18,4 C 77 % 1009,2 hPa 0,0 l/m 6,5 km/h (2 Bft) S-SW 202 14,3 C 18,4 C
09.07.2012 01:36 18,4 C 77 % 1009,3 hPa 0,0 l/m 13,7 km/h (3 Bft) S-SW 202 14,3 C 18,4 C
09.07.2012 01:41 18,3 C 77 % 1009,3 hPa 0,0 l/m 8,3 km/h (2 Bft) W-SW 247 14,2 C 18,3 C
09.07.2012 01:46 18,2 C 76 % 1009,3 hPa 0,0 l/m 11,5 km/h (2 Bft) S-SW 202 13,9 C 18,2 C
09.07.2012 01:51 18,2 C 76 % 1009,2 hPa 0,0 l/m 7,2 km/h (2 Bft) S 180 13,9 C 18,2 C
09.07.2012 01:56 18,1 C 76 % 1009,3 hPa 0,0 l/m 6,1 km/h (2 Bft) SW 225 13,8 C 18,1 C
09.07.2012 02:01 17,9 C 77 % 1009,3 hPa 0,0 l/m 6,5 km/h (2 Bft) SW 225 13,8 C 17,9 C
09.07.2012 02:06 17,9 C 77 % 1009,3 hPa 0,0 l/m 13,7 km/h (3 Bft) W-SW 247 13,8 C 17,9 C
09.07.2012 02:11 17,8 C 77 % 1009,4 hPa 0,0 l/m 3,6 km/h (1 Bft) SW 225 13,7 C 17,8 C
09.07.2012 02:16 17,7 C 77 % 1009,4 hPa 0,0 l/m 6,8 km/h (2 Bft) S-SW 202 13,6 C 17,7 C
09.07.2012 02:21 17,7 C 78 % 1009,4 hPa 0,0 l/m 9,4 km/h (2 Bft) W-SW 247 13,8 C 17,7 C
09.07.2012 02:26 17,6 C 78 % 1009,5 hPa 0,0 l/m 15,8 km/h (3 Bft) W-SW 247 13,7 C 17,6 C
09.07.2012 02:31 17,6 C 78 % 1009,5 hPa 0,0 l/m 6,1 km/h (2 Bft) W-SW 247 13,7 C 17,6 C
09.07.2012 02:36 17,5 C 78 % 1009,6 hPa 0,0 l/m 7,9 km/h (2 Bft) SW 225 13,6 C 17,5 C
09.07.2012 02:41 17,3 C 78 % 1009,5 hPa 0,0 l/m 6,5 km/h (2 Bft) W-SW 247 13,4 C 17,3 C
09.07.2012 02:46 17,3 C 79 % 1009,5 hPa 0,0 l/m 6,8 km/h (2 Bft) W-SW 247 13,6 C 17,3 C
09.07.2012 02:51 17,1 C 79 % 1009,5 hPa 0,0 l/m 16,6 km/h (3 Bft) W 270 13,4 C 17,1 C
09.07.2012 02:56 17,1 C 79 % 1009,5 hPa 0,0 l/m 7,6 km/h (2 Bft) W-SW 247 13,4 C 17,1 C
09.07.2012 03:01 16,9 C 79 % 1009,5 hPa 0,0 l/m 10,1 km/h (2 Bft) W-SW 247 13,2 C 16,9 C
09.07.2012 03:06 16,9 C 80 % 1009,5 hPa 0,0 l/m 7,6 km/h (2 Bft) W-SW 247 13,4 C 16,9 C
09.07.2012 03:11 16,8 C 80 % 1009,4 hPa 0,0 l/m 5,0 km/h (1 Bft) SW 225 13,3 C 16,8 C
09.07.2012 03:16 16,7 C 80 % 1009,4 hPa 0,0 l/m 11,2 km/h (2 Bft) W-SW 247 13,2 C 16,7 C
09.07.2012 03:21 16,6 C 80 % 1009,4 hPa 0,0 l/m 8,6 km/h (2 Bft) SW 225 13,1 C 16,6 C
09.07.2012 03:26 16,6 C 81 % 1009,3 hPa 0,0 l/m 9,0 km/h (2 Bft) S 180 13,3 C 16,6 C
09.07.2012 03:31 16,5 C 81 % 1009,4 hPa 0,0 l/m 13,3 km/h (3 Bft) W-SW 247 13,2 C 16,5 C
09.07.2012 03:36 16,4 C 81 % 1009,5 hPa 0,0 l/m 5,0 km/h (1 Bft) S-SW 202 13,1 C 16,4 C
09.07.2012 03:41 16,4 C 81 % 1009,5 hPa 0,0 l/m 5,0 km/h (1 Bft) SW 225 13,1 C 16,4 C
09.07.2012 03:46 16,4 C 81 % 1009,5 hPa 0,0 l/m 7,9 km/h (2 Bft) W-SW 247 13,1 C 16,4 C
09.07.2012 03:51 16,3 C 82 % 1009,6 hPa 0,0 l/m 7,6 km/h (2 Bft) W-SW 247 13,2 C 16,3 C
09.07.2012 03:56 16,3 C 82 % 1009,6 hPa 0,0 l/m 10,1 km/h (2 Bft) W-SW 247 13,2 C 16,3 C
09.07.2012 04:01 16,2 C 82 % 1009,7 hPa 0,0 l/m 9,0 km/h (2 Bft) SW 225 13,1 C 16,2 C
09.07.2012 04:06 16,2 C 82 % 1009,7 hPa 0,0 l/m 6,8 km/h (2 Bft) S-SW 202 13,1 C 16,2 C
09.07.2012 04:11 16,1 C 82 % 1009,8 hPa 0,0 l/m 10,8 km/h (2 Bft) SW 225 13,0 C 16,1 C
09.07.2012 04:16 16,1 C 82 % 1009,8 hPa 0,0 l/m 4,3 km/h (1 Bft) W-SW 247 13,0 C 16,1 C
09.07.2012 04:21 16,1 C 82 % 1009,9 hPa 0,0 l/m 13,3 km/h (3 Bft) SW 225 13,0 C 16,1 C
09.07.2012 04:26 16,1 C 82 % 1009,9 hPa 0,0 l/m 7,6 km/h (2 Bft) SW 225 13,0 C 16,1 C
09.07.2012 04:31 16,1 C 82 % 1009,9 hPa 0,0 l/m 8,3 km/h (2 Bft) SW 225 13,0 C 16,1 C
09.07.2012 04:36 16,1 C 82 % 1009,7 hPa 0,0 l/m 4,7 km/h (1 Bft) S-SW 202 13,0 C 16,1 C
09.07.2012 04:41 16,0 C 82 % 1009,7 hPa 0,0 l/m 13,0 km/h (3 Bft) W-SW 247 12,9 C 16,0 C
09.07.2012 04:46 16,0 C 82 % 1009,8 hPa 0,0 l/m 3,6 km/h (1 Bft) S 180 12,9 C 16,0 C
09.07.2012 04:51 16,0 C 81 % 1009,8 hPa 0,0 l/m 10,8 km/h (2 Bft) W-SW 247 12,7 C 16,0 C
09.07.2012 04:56 15,9 C 81 % 1009,8 hPa 0,0 l/m 10,1 km/h (2 Bft) W-SW 247 12,6 C 15,9 C
09.07.2012 05:01 16,0 C 81 % 1009,8 hPa 0,0 l/m 13,3 km/h (3 Bft) W-SW 247 12,7 C 16,0 C
09.07.2012 05:06 15,9 C 81 % 1009,9 hPa 0,0 l/m 8,3 km/h (2 Bft) W-SW 247 12,6 C 15,9 C
09.07.2012 05:11 15,9 C 81 % 1009,9 hPa 0,0 l/m 3,2 km/h (1 Bft) S-SW 202 12,6 C 15,9 C
09.07.2012 05:16 15,9 C 81 % 1009,9 hPa 0,0 l/m 2,5 km/h (1 Bft) SW 225 12,6 C 15,9 C
09.07.2012 05:21 15,9 C 81 % 1010,0 hPa 0,0 l/m 4,7 km/h (1 Bft) W-SW 247 12,6 C 15,9 C
09.07.2012 05:26 15,9 C 81 % 1010,0 hPa 0,0 l/m 4,0 km/h (1 Bft) S-SW 202 12,6 C 15,9 C
09.07.2012 05:31 15,9 C 81 % 1009,9 hPa 0,0 l/m 9,7 km/h (2 Bft) SW 225 12,6 C 15,9 C
09.07.2012 05:36 16,0 C 81 % 1010,0 hPa 0,0 l/m 5,4 km/h (1 Bft) S-SW 202 12,7 C 16,0 C
09.07.2012 05:41 16,1 C 81 % 1009,9 hPa 0,0 l/m 9,4 km/h (2 Bft) S-SW 202 12,8 C 16,1 C
09.07.2012 05:46 16,3 C 81 % 1009,9 hPa 0,0 l/m 7,2 km/h (2 Bft) SW 225 13,0 C 16,3 C
09.07.2012 05:51 19,1 C 76 % 1009,9 hPa 0,0 l/m 9,7 km/h (2 Bft) SW 225 14,8 C 19,1 C
09.07.2012 05:56 21,8 C 66 % 1009,9 hPa 0,0 l/m 13,7 km/h (3 Bft) W-SW 247 15,2 C 21,8 C
09.07.2012 06:01 23,8 C 59 % 1009,9 hPa 0,0 l/m 16,6 km/h (3 Bft) S-SW 202 15,3 C 23,8 C
09.07.2012 06:06 25,3 C 55 % 1009,8 hPa 0,0 l/m 4,7 km/h (1 Bft) S-SW 202 15,6 C 25,3 C
09.07.2012 06:11 25,9 C 52 % 1009,7 hPa 0,0 l/m 11,9 km/h (2 Bft) S-SW 202 15,3 C 25,9 C
09.07.2012 06:16 26,6 C 50 % 1009,9 hPa 0,0 l/m 16,2 km/h (3 Bft) W-SW 247 15,3 C 26,6 C
09.07.2012 06:21 27,1 C 48 % 1009,9 hPa 0,0 l/m 7,9 km/h (2 Bft) W-SW 247 15,1 C 27,1 C
09.07.2012 06:26 27,7 C 47 % 1009,8 hPa 0,0 l/m 12,2 km/h (2 Bft) SW 225 15,3 C 27,7 C
09.07.2012 06:31 28,4 C 45 % 1009,8 hPa 0,0 l/m 15,1 km/h (3 Bft) W-SW 247 15,3 C 28,4 C
09.07.2012 06:36 26,9 C 46 % 1009,8 hPa 0,0 l/m 13,0 km/h (3 Bft) W-NW 292 14,3 C 26,9 C
09.07.2012 06:41 22,4 C 54 % 1009,9 hPa 0,0 l/m 9,4 km/h (2 Bft) SO 135 12,6 C 22,4 C
09.07.2012 06:46 20,3 C 62 % 1009,8 hPa 0,0 l/m 14,4 km/h (3 Bft) W-SW 247 12,8 C 20,3 C
09.07.2012 06:51 19,1 C 66 % 1009,9 hPa 0,0 l/m 13,3 km/h (3 Bft) W-SW 247 12,6 C 19,1 C
09.07.2012 06:56 18,4 C 68 % 1009,9 hPa 0,0 l/m 6,1 km/h (2 Bft) SW 225 12,4 C 18,4 C
09.07.2012 07:01 18,3 C 70 % 1010,1 hPa 0,0 l/m 9,7 km/h (2 Bft) W-SW 247 12,7 C 18,3 C
09.07.2012 07:06 18,4 C 71 % 1010,1 hPa 0,0 l/m 5,0 km/h (1 Bft) S-SW 202 13,0 C 18,4 C
09.07.2012 07:11 18,6 C 70 % 1010,2 hPa 0,0 l/m 5,0 km/h (1 Bft) SW 225 13,0 C 18,6 C
09.07.2012 07:16 18,9 C 70 % 1010,1 hPa 0,0 l/m 10,8 km/h (2 Bft) W-SW 247 13,3 C 18,9 C
09.07.2012 07:21 18,9 C 70 % 1010,0 hPa 0,0 l/m 8,3 km/h (2 Bft) S-SW 202 13,3 C 18,9 C
09.07.2012 07:26 19,6 C 70 % 1010,1 hPa 0,0 l/m 8,6 km/h (2 Bft) W-SW 247 14,0 C 19,6 C
09.07.2012 07:31 21,8 C 64 % 1010,2 hPa 0,0 l/m 6,5 km/h (2 Bft) S-SW 202 14,7 C 21,8 C
09.07.2012 07:36 20,5 C 64 % 1010,2 hPa 0,0 l/m 9,7 km/h (2 Bft) SW 225 13,5 C 20,5 C
09.07.2012 07:41 19,4 C 67 % 1010,3 hPa 0,0 l/m 13,0 km/h (3 Bft) W-SW 247 13,1 C 19,4 C
09.07.2012 07:46 18,8 C 69 % 1010,2 hPa 0,0 l/m 17,6 km/h (3 Bft) W-SW 247 13,0 C 18,8 C
09.07.2012 07:51 18,7 C 69 % 1010,3 hPa 0,0 l/m 7,6 km/h (2 Bft) S 180 12,9 C 18,7 C
09.07.2012 07:56 18,8 C 70 % 1010,3 hPa 0,0 l/m 19,4 km/h (3 Bft) W-SW 247 13,2 C 18,8 C
09.07.2012 08:01 18,9 C 69 % 1010,3 hPa 0,0 l/m 9,7 km/h (2 Bft) SW 225 13,1 C 18,9 C
09.07.2012 08:06 18,9 C 69 % 1010,5 hPa 0,0 l/m 9,0 km/h (2 Bft) W 270 13,1 C 18,9 C
09.07.2012 08:11 18,9 C 69 % 1010,6 hPa 0,0 l/m 14,4 km/h (3 Bft) W 270 13,1 C 18,9 C
09.07.2012 08:16 19,0 C 69 % 1010,4 hPa 0,0 l/m 11,9 km/h (2 Bft) W-SW 247 13,2 C 19,0 C
09.07.2012 08:21 19,4 C 69 % 1010,6 hPa 0,0 l/m 13,0 km/h (3 Bft) W 270 13,6 C 19,4 C
09.07.2012 08:26 19,3 C 68 % 1010,5 hPa 0,0 l/m 16,2 km/h (3 Bft) SW 225 13,2 C 19,3 C
09.07.2012 08:31 19,5 C 68 % 1010,5 hPa 0,0 l/m 11,2 km/h (2 Bft) S-SW 202 13,4 C 19,5 C
09.07.2012 08:36 19,9 C 67 % 1010,6 hPa 0,0 l/m 11,2 km/h (2 Bft) W-SW 247 13,6 C 19,9 C
09.07.2012 08:41 20,0 C 67 % 1010,6 hPa 0,0 l/m 17,3 km/h (3 Bft) SW 225 13,7 C 20,0 C
09.07.2012 08:46 20,1 C 66 % 1010,4 hPa 0,0 l/m 13,7 km/h (3 Bft) SW 225 13,5 C 20,1 C
09.07.2012 08:51 19,9 C 66 % 1010,5 hPa 0,0 l/m 10,1 km/h (2 Bft) S-SO 157 13,4 C 19,9 C
09.07.2012 08:56 20,1 C 66 % 1010,6 hPa 0,0 l/m 15,5 km/h (3 Bft) S-SW 202 13,5 C 20,1 C
09.07.2012 09:01 20,6 C 65 % 1010,5 hPa 0,0 l/m 15,5 km/h (3 Bft) SW 225 13,8 C 20,6 C
09.07.2012 09:06 20,2 C 65 % 1010,6 hPa 0,0 l/m 8,6 km/h (2 Bft) S-SW 202 13,4 C 20,2 C
09.07.2012 09:11 20,3 C 65 % 1010,7 hPa 0,0 l/m 16,9 km/h (3 Bft) W-SW 247 13,5 C 20,3 C
09.07.2012 09:16 20,8 C 65 % 1010,6 hPa 0,0 l/m 7,6 km/h (2 Bft) W-SW 247 14,0 C 20,8 C
09.07.2012 09:21 20,8 C 63 % 1010,7 hPa 0,0 l/m 27,7 km/h (4 Bft) W-SW 247 13,5 C 20,8 C
09.07.2012 09:26 20,2 C 64 % 1010,4 hPa 0,0 l/m 13,0 km/h (3 Bft) SW 225 13,2 C 20,2 C
09.07.2012 09:31 20,1 C 64 % 1010,4 hPa 0,0 l/m 14,0 km/h (3 Bft) SW 225 13,1 C 20,1 C
09.07.2012 09:36 20,1 C 64 % 1010,5 hPa 0,0 l/m 14,0 km/h (3 Bft) W 270 13,1 C 20,1 C
09.07.2012 09:41 19,9 C 64 % 1010,4 hPa 0,0 l/m 27,0 km/h (4 Bft) W 270 12,9 C 19,9 C
09.07.2012 09:46 20,6 C 65 % 1010,3 hPa 0,0 l/m 20,2 km/h (4 Bft) W-SW 247 13,8 C 20,6 C
09.07.2012 09:51 21,1 C 63 % 1010,5 hPa 0,0 l/m 11,2 km/h (2 Bft) W-SW 247 13,8 C 21,1 C
09.07.2012 09:56 21,2 C 62 % 1010,5 hPa 0,0 l/m 8,3 km/h (2 Bft) W 270 13,6 C 21,2 C
09.07.2012 10:01 21,1 C 61 % 1010,5 hPa 0,0 l/m 10,4 km/h (2 Bft) S-SW 202 13,3 C 21,1 C
09.07.2012 10:06 20,6 C 62 % 1010,6 hPa 0,0 l/m 34,2 km/h (5 Bft) W-SW 247 13,1 C 20,6 C
09.07.2012 10:11 20,6 C 64 % 1010,5 hPa 0,0 l/m 21,6 km/h (4 Bft) W-SW 247 13,5 C 20,6 C
09.07.2012 10:16 21,4 C 62 % 1010,5 hPa 0,0 l/m 18,4 km/h (3 Bft) SW 225 13,8 C 21,4 C
09.07.2012 10:21 21,6 C 60 % 1010,5 hPa 0,0 l/m 23,4 km/h (4 Bft) W-SW 247 13,5 C 21,6 C
09.07.2012 10:26 20,9 C 60 % 1010,6 hPa 0,0 l/m 17,3 km/h (3 Bft) W-SW 247 12,8 C 20,9 C
09.07.2012 10:31 20,6 C 62 % 1010,7 hPa 0,0 l/m 16,9 km/h (3 Bft) W-SW 247 13,1 C 20,6 C
09.07.2012 10:36 21,6 C 60 % 1010,6 hPa 0,0 l/m 20,2 km/h (4 Bft) W 270 13,5 C 21,6 C
09.07.2012 10:41 21,9 C 59 % 1010,5 hPa 0,0 l/m 18,4 km/h (3 Bft) S-SW 202 13,5 C 21,9 C
09.07.2012 10:46 21,8 C 58 % 1010,7 hPa 0,0 l/m 16,9 km/h (3 Bft) SW 225 13,2 C 21,8 C
09.07.2012 10:51 21,2 C 59 % 1010,6 hPa 0,0 l/m 20,5 km/h (4 Bft) S-SW 202 12,9 C 21,2 C
09.07.2012 10:56 20,7 C 60 % 1010,7 hPa 0,0 l/m 11,2 km/h (2 Bft) S-SW 202 12,7 C 20,7 C
09.07.2012 11:01 20,7 C 61 % 1010,7 hPa 0,0 l/m 8,6 km/h (2 Bft) W 270 12,9 C 20,7 C
09.07.2012 11:06 21,3 C 60 % 1010,8 hPa 0,0 l/m 14,4 km/h (3 Bft) W-SW 247 13,2 C 21,3 C
09.07.2012 11:11 21,8 C 59 % 1010,8 hPa 0,0 l/m 11,9 km/h (2 Bft) W-SW 247 13,4 C 21,8 C
09.07.2012 11:16 21,3 C 59 % 1010,6 hPa 0,0 l/m 9,4 km/h (2 Bft) W-SW 247 13,0 C 21,3 C
09.07.2012 11:21 21,1 C 60 % 1010,7 hPa 0,0 l/m 23,4 km/h (4 Bft) SW 225 13,0 C 21,1 C
09.07.2012 11:26 20,6 C 61 % 1010,6 hPa 0,0 l/m 5,0 km/h (1 Bft) W-SW 247 12,8 C 20,6 C
09.07.2012 11:31 21,5 C 60 % 1010,6 hPa 0,0 l/m 21,6 km/h (4 Bft) W 270 13,4 C 21,5 C
09.07.2012 11:36 22,3 C 58 % 1010,7 hPa 0,0 l/m 14,8 km/h (3 Bft) W-SW 247 13,6 C 22,3 C
09.07.2012 11:41 22,9 C 56 % 1010,6 hPa 0,0 l/m 24,8 km/h (4 Bft) W-SW 247 13,6 C 22,9 C
09.07.2012 11:46 23,4 C 55 % 1010,6 hPa 0,0 l/m 11,2 km/h (2 Bft) SW 225 13,8 C 23,4 C
09.07.2012 11:51 23,4 C 55 % 1010,6 hPa 0,0 l/m 14,8 km/h (3 Bft) SW 225 13,8 C 23,4 C
09.07.2012 11:56 22,8 C 55 % 1010,9 hPa 0,0 l/m 22,0 km/h (4 Bft) W 270 13,3 C 22,8 C
09.07.2012 12:01 22,8 C 55 % 1010,7 hPa 0,0 l/m 19,8 km/h (3 Bft) W-SW 247 13,3 C 22,8 C
09.07.2012 12:06 23,1 C 55 % 1010,7 hPa 0,0 l/m 11,2 km/h (2 Bft) W 270 13,6 C 23,1 C
09.07.2012 12:11 22,9 C 54 % 1010,7 hPa 0,0 l/m 23,0 km/h (4 Bft) W-SW 247 13,1 C 22,9 C
09.07.2012 12:16 22,5 C 55 % 1010,7 hPa 0,0 l/m 13,7 km/h (3 Bft) S 180 13,0 C 22,5 C
09.07.2012 12:21 23,1 C 55 % 1010,8 hPa 0,0 l/m 7,9 km/h (2 Bft) SW 225 13,6 C 23,1 C
09.07.2012 12:26 23,9 C 53 % 1010,7 hPa 0,0 l/m 17,3 km/h (3 Bft) S-SW 202 13,7 C 23,9 C
09.07.2012 12:31 23,7 C 51 % 1010,7 hPa 0,0 l/m 27,0 km/h (4 Bft) W-SW 247 13,0 C 23,7 C
09.07.2012 12:36 23,1 C 52 % 1010,8 hPa 0,0 l/m 11,2 km/h (2 Bft) W-NW 292 12,7 C 23,1 C
09.07.2012 12:41 23,1 C 53 % 1010,9 hPa 0,0 l/m 23,4 km/h (4 Bft) W-SW 247 13,0 C 23,1 C
09.07.2012 12:46 22,8 C 53 % 1010,9 hPa 0,0 l/m 27,0 km/h (4 Bft) W-NW 292 12,7 C 22,8 C
09.07.2012 12:51 22,9 C 53 % 1010,9 hPa 0,0 l/m 10,4 km/h (2 Bft) SW 225 12,8 C 22,9 C
09.07.2012 12:56 23,5 C 52 % 1010,9 hPa 0,0 l/m 9,0 km/h (2 Bft) NW 315 13,1 C 23,5 C
09.07.2012 13:01 23,8 C 52 % 1010,8 hPa 0,0 l/m 16,9 km/h (3 Bft) W-SW 247 13,3 C 23,8 C
09.07.2012 13:06 24,3 C 49 % 1010,8 hPa 0,0 l/m 23,8 km/h (4 Bft) SW 225 12,9 C 24,3 C
09.07.2012 13:11 24,8 C 48 % 1010,8 hPa 0,0 l/m 28,1 km/h (4 Bft) W 270 13,0 C 24,8 C
09.07.2012 13:16 24,9 C 47 % 1010,6 hPa 0,0 l/m 15,1 km/h (3 Bft) W-SW 247 12,8 C 24,9 C
09.07.2012 13:21 25,1 C 46 % 1010,7 hPa 0,0 l/m 11,2 km/h (2 Bft) S-SW 202 12,7 C 25,1 C
09.07.2012 13:26 24,8 C 46 % 1010,8 hPa 0,0 l/m 25,6 km/h (4 Bft) S-SW 202 12,4 C 24,8 C
09.07.2012 13:31 24,1 C 48 % 1010,7 hPa 0,0 l/m 15,5 km/h (3 Bft) W 270 12,4 C 24,1 C
09.07.2012 13:36 24,7 C 48 % 1010,7 hPa 0,0 l/m 14,4 km/h (3 Bft) S-SW 202 12,9 C 24,7 C
09.07.2012 13:41 24,9 C 48 % 1010,7 hPa 0,0 l/m 24,5 km/h (4 Bft) W 270 13,1 C 24,9 C
09.07.2012 13:46 24,9 C 47 % 1010,6 hPa 0,0 l/m 25,2 km/h (4 Bft) SW 225 12,8 C 24,9 C
09.07.2012 13:51 24,8 C 46 % 1010,7 hPa 0,0 l/m 14,4 km/h (3 Bft) NW 315 12,4 C 24,8 C
09.07.2012 13:56 24,6 C 47 % 1010,7 hPa 0,0 l/m 23,0 km/h (4 Bft) SW 225 12,5 C 24,6 C
09.07.2012 14:01 25,1 C 45 % 1010,6 hPa 0,0 l/m 14,0 km/h (3 Bft) W-SW 247 12,3 C 25,1 C
09.07.2012 14:06 24,3 C 47 % 1010,8 hPa 0,0 l/m 18,7 km/h (3 Bft) S-SW 202 12,3 C 24,3 C
09.07.2012 14:11 24,9 C 47 % 1010,7 hPa 0,0 l/m 8,3 km/h (2 Bft) W-SW 247 12,8 C 24,9 C
09.07.2012 14:16 24,2 C 46 % 1010,8 hPa 0,0 l/m 14,8 km/h (3 Bft) W-SW 247 11,8 C 24,2 C
09.07.2012 14:21 24,3 C 47 % 1010,5 hPa 0,0 l/m 14,8 km/h (3 Bft) W-NW 292 12,3 C 24,3 C
09.07.2012 14:26 24,6 C 44 % 1010,7 hPa 0,0 l/m 18,4 km/h (3 Bft) SW 225 11,5 C 24,6 C
09.07.2012 14:31 23,9 C 46 % 1010,6 hPa 0,0 l/m 14,4 km/h (3 Bft) W 270 11,6 C 23,9 C
09.07.2012 14:36 24,1 C 48 % 1010,6 hPa 0,0 l/m 18,4 km/h (3 Bft) W-SW 247 12,4 C 24,1 C
09.07.2012 14:41 25,3 C 46 % 1010,6 hPa 0,0 l/m 12,2 km/h (2 Bft) W 270 12,8 C 25,3 C
09.07.2012 14:46 25,6 C 44 % 1010,6 hPa 0,0 l/m 15,8 km/h (3 Bft) SW 225 12,4 C 25,6 C
09.07.2012 14:51 25,6 C 43 % 1010,7 hPa 0,0 l/m 29,5 km/h (5 Bft) W-SW 247 12,1 C 25,6 C
09.07.2012 14:56 25,6 C 44 % 1010,5 hPa 0,0 l/m 15,5 km/h (3 Bft) S-SW 202 12,4 C 25,6 C
09.07.2012 15:01 26,1 C 44 % 1010,5 hPa 0,0 l/m 16,2 km/h (3 Bft) W-SW 247 12,9 C 26,1 C
09.07.2012 15:06 25,5 C 45 % 1010,4 hPa 0,0 l/m 7,9 km/h (2 Bft) W-SW 247 12,7 C 25,5 C
09.07.2012 15:11 24,7 C 47 % 1010,5 hPa 0,0 l/m 9,4 km/h (2 Bft) O-SO 112 12,6 C 24,7 C
09.07.2012 15:16 24,1 C 48 % 1010,5 hPa 0,0 l/m 19,1 km/h (3 Bft) W-SW 247 12,4 C 24,1 C
09.07.2012 15:21 23,4 C 51 % 1010,6 hPa 0,0 l/m 14,8 km/h (3 Bft) W-SW 247 12,7 C 23,4 C
09.07.2012 15:26 24,1 C 51 % 1010,6 hPa 0,0 l/m 9,7 km/h (2 Bft) SW 225 13,3 C 24,1 C
09.07.2012 15:31 24,4 C 49 % 1010,5 hPa 0,0 l/m 6,8 km/h (2 Bft) W 270 13,0 C 24,4 C
09.07.2012 15:36 24,5 C 48 % 1010,5 hPa 0,0 l/m 15,8 km/h (3 Bft) W-SW 247 12,8 C 24,5 C
09.07.2012 15:41 24,8 C 51 % 1010,5 hPa 0,0 l/m 5,0 km/h (1 Bft) W 270 14,0 C 24,8 C
09.07.2012 15:46 25,3 C 47 % 1010,4 hPa 0,0 l/m 11,2 km/h (2 Bft) W-SW 247 13,2 C 25,3 C
09.07.2012 15:51 25,8 C 46 % 1010,3 hPa 0,0 l/m 22,7 km/h (4 Bft) SW 225 13,3 C 25,8 C
09.07.2012 15:56 25,3 C 46 % 1010,6 hPa 0,0 l/m 19,8 km/h (3 Bft) W-NW 292 12,8 C 25,3 C
09.07.2012 16:01 25,3 C 45 % 1010,5 hPa 0,0 l/m 16,9 km/h (3 Bft) W-SW 247 12,5 C 25,3 C
09.07.2012 16:06 25,4 C 44 % 1010,6 hPa 0,0 l/m 14,8 km/h (3 Bft) W-SW 247 12,2 C 25,4 C
09.07.2012 16:11 24,9 C 45 % 1010,4 hPa 0,0 l/m 26,3 km/h (4 Bft) W-SW 247 12,1 C 24,9 C
09.07.2012 16:16 24,9 C 47 % 1010,4 hPa 0,0 l/m 14,4 km/h (3 Bft) W-SW 247 12,8 C 24,9 C
09.07.2012 16:21 24,8 C 46 % 1010,3 hPa 0,0 l/m 11,5 km/h (2 Bft) SW 225 12,4 C 24,8 C
09.07.2012 16:26 23,6 C 48 % 1010,3 hPa 0,0 l/m 20,2 km/h (4 Bft) W-SW 247 11,9 C 23,6 C
09.07.2012 16:31 23,0 C 50 % 1010,4 hPa 0,0 l/m 13,7 km/h (3 Bft) W 270 12,0 C 23,0 C
09.07.2012 16:36 22,8 C 51 % 1010,4 hPa 0,0 l/m 14,4 km/h (3 Bft) W-SW 247 12,1 C 22,8 C
09.07.2012 16:41 22,4 C 51 % 1010,4 hPa 0,0 l/m 14,8 km/h (3 Bft) SW 225 11,8 C 22,4 C
09.07.2012 16:46 22,1 C 52 % 1010,5 hPa 0,0 l/m 19,4 km/h (3 Bft) S-SW 202 11,8 C 22,1 C
09.07.2012 16:51 21,9 C 52 % 1010,5 hPa 0,0 l/m 11,9 km/h (2 Bft) S-SW 202 11,6 C 21,9 C
09.07.2012 16:56 21,9 C 53 % 1010,5 hPa 0,0 l/m 10,1 km/h (2 Bft) W-SW 247 11,9 C 21,9 C
09.07.2012 17:01 22,0 C 55 % 1010,4 hPa 0,0 l/m 8,3 km/h (2 Bft) W 270 12,5 C 22,0 C
09.07.2012 17:06 22,2 C 54 % 1010,5 hPa 0,0 l/m 5,0 km/h (1 Bft) NW 315 12,4 C 22,2 C
09.07.2012 17:11 22,4 C 54 % 1010,6 hPa 0,0 l/m 8,3 km/h (2 Bft) W 270 12,6 C 22,4 C
09.07.2012 17:16 22,8 C 54 % 1010,5 hPa 0,0 l/m 8,3 km/h (2 Bft) W 270 13,0 C 22,8 C
09.07.2012 17:21 22,8 C 52 % 1010,4 hPa 0,0 l/m 14,0 km/h (3 Bft) W-SW 247 12,4 C 22,8 C
09.07.2012 17:26 22,6 C 53 % 1010,5 hPa 0,0 l/m 11,5 km/h (2 Bft) SW 225 12,5 C 22,6 C
09.07.2012 17:31 22,4 C 53 % 1010,4 hPa 0,0 l/m 10,1 km/h (2 Bft) W-SW 247 12,3 C 22,4 C
09.07.2012 17:36 22,3 C 54 % 1010,4 hPa 0,0 l/m 16,2 km/h (3 Bft) W 270 12,5 C 22,3 C
09.07.2012 17:41 22,5 C 53 % 1010,3 hPa 0,0 l/m 11,9 km/h (2 Bft) SO 135 12,4 C 22,5 C
09.07.2012 17:46 22,8 C 53 % 1010,4 hPa 0,0 l/m 7,2 km/h (2 Bft) W-SW 247 12,7 C 22,8 C
09.07.2012 17:51 22,6 C 53 % 1010,3 hPa 0,0 l/m 19,1 km/h (3 Bft) W-SW 247 12,5 C 22,6 C
09.07.2012 17:56 22,6 C 53 % 1010,3 hPa 0,0 l/m 16,9 km/h (3 Bft) W-SW 247 12,5 C 22,6 C
09.07.2012 18:01 22,9 C 53 % 1010,4 hPa 0,0 l/m 15,1 km/h (3 Bft) SW 225 12,8 C 22,9 C
09.07.2012 18:06 22,8 C 53 % 1010,3 hPa 0,0 l/m 12,2 km/h (2 Bft) S 180 12,7 C 22,8 C
09.07.2012 18:11 22,5 C 53 % 1010,4 hPa 0,0 l/m 19,1 km/h (3 Bft) W 270 12,4 C 22,5 C
09.07.2012 18:16 22,7 C 53 % 1010,4 hPa 0,0 l/m 14,0 km/h (3 Bft) W-SW 247 12,6 C 22,7 C
09.07.2012 18:21 22,8 C 51 % 1010,5 hPa 0,0 l/m 13,7 km/h (3 Bft) W-SW 247 12,1 C 22,8 C
09.07.2012 18:26 22,5 C 52 % 1010,5 hPa 0,0 l/m 13,0 km/h (3 Bft) SW 225 12,1 C 22,5 C
09.07.2012 18:31 22,3 C 51 % 1010,5 hPa 0,0 l/m 6,5 km/h (2 Bft) W-SW 247 11,7 C 22,3 C
09.07.2012 18:36 22,3 C 52 % 1010,5 hPa 0,0 l/m 9,7 km/h (2 Bft) W 270 12,0 C 22,3 C
09.07.2012 18:41 22,4 C 53 % 1010,4 hPa 0,0 l/m 5,0 km/h (1 Bft) W-SW 247 12,3 C 22,4 C
09.07.2012 18:46 22,6 C 53 % 1010,3 hPa 0,0 l/m 11,9 km/h (2 Bft) W-SW 247 12,5 C 22,6 C
09.07.2012 18:51 22,7 C 53 % 1010,4 hPa 0,0 l/m 17,3 km/h (3 Bft) W 270 12,6 C 22,7 C
09.07.2012 18:56 22,2 C 52 % 1010,4 hPa 0,0 l/m 21,2 km/h (4 Bft) W-SW 247 11,9 C 22,2 C
09.07.2012 19:01 21,9 C 52 % 1010,3 hPa 0,0 l/m 21,2 km/h (4 Bft) W-SW 247 11,6 C 21,9 C
09.07.2012 19:06 21,8 C 53 % 1010,3 hPa 0,0 l/m 10,1 km/h (2 Bft) S-SW 202 11,8 C 21,8 C
09.07.2012 19:11 21,6 C 54 % 1010,2 hPa 0,0 l/m 4,0 km/h (1 Bft) W 270 11,9 C 21,6 C
09.07.2012 19:16 21,6 C 55 % 1010,2 hPa 0,0 l/m 7,6 km/h (2 Bft) W 270 12,2 C 21,6 C
09.07.2012 19:21 21,6 C 55 % 1010,3 hPa 0,0 l/m 4,7 km/h (1 Bft) NW 315 12,2 C 21,6 C
09.07.2012 19:26 21,6 C 56 % 1010,4 hPa 0,0 l/m 8,6 km/h (2 Bft) W-SW 247 12,4 C 21,6 C
09.07.2012 19:31 21,6 C 57 % 1010,5 hPa 0,0 l/m 4,0 km/h (1 Bft) W-NW 292 12,7 C 21,6 C
09.07.2012 19:36 22,3 C 55 % 1010,4 hPa 0,0 l/m 12,2 km/h (2 Bft) W 270 12,8 C 22,3 C
09.07.2012 19:41 22,6 C 55 % 1010,3 hPa 0,0 l/m 5,0 km/h (1 Bft) W-SW 247 13,1 C 22,6 C
09.07.2012 19:46 22,2 C 55 % 1010,3 hPa 0,0 l/m 13,0 km/h (3 Bft) W 270 12,7 C 22,2 C
09.07.2012 19:51 21,9 C 56 % 1010,2 hPa 0,0 l/m 4,0 km/h (1 Bft) W-SW 247 12,7 C 21,9 C
09.07.2012 19:56 22,3 C 57 % 1010,2 hPa 0,0 l/m 3,2 km/h (1 Bft) W-SW 247 13,4 C 22,3 C
09.07.2012 20:01 22,4 C 56 % 1010,2 hPa 0,0 l/m 5,0 km/h (1 Bft) W-SW 247 13,2 C 22,4 C
09.07.2012 20:06 22,1 C 56 % 1010,2 hPa 0,0 l/m 0,0 km/h (0 Bft) W-SW 247 12,9 C 22,1 C
09.07.2012 20:11 21,9 C 57 % 1010,2 hPa 0,0 l/m 6,5 km/h (2 Bft) SW 225 13,0 C 21,9 C
09.07.2012 20:16 21,8 C 57 % 1010,1 hPa 0,0 l/m 5,4 km/h (1 Bft) W-SW 247 12,9 C 21,8 C
09.07.2012 20:21 21,4 C 58 % 1010,0 hPa 0,0 l/m 8,6 km/h (2 Bft) W-SW 247 12,8 C 21,4 C
09.07.2012 20:26 21,1 C 58 % 1010,0 hPa 0,0 l/m 5,8 km/h (2 Bft) W-SW 247 12,5 C 21,1 C
09.07.2012 20:31 20,9 C 59 % 1010,0 hPa 0,0 l/m 9,0 km/h (2 Bft) W-SW 247 12,6 C 20,9 C
09.07.2012 20:36 20,9 C 59 % 1010,0 hPa 0,0 l/m 7,6 km/h (2 Bft) W-SW 247 12,6 C 20,9 C
09.07.2012 20:41 20,9 C 59 % 1009,9 hPa 0,0 l/m 13,0 km/h (3 Bft) W-SW 247 12,6 C 20,9 C
09.07.2012 20:46 20,9 C 59 % 1010,1 hPa 0,0 l/m 7,2 km/h (2 Bft) W-SW 247 12,6 C 20,9 C
09.07.2012 20:51 20,7 C 59 % 1010,1 hPa 0,0 l/m 13,0 km/h (3 Bft) W-SW 247 12,4 C 20,7 C
09.07.2012 20:56 20,4 C 60 % 1010,3 hPa 0,0 l/m 4,3 km/h (1 Bft) W-SW 247 12,4 C 20,4 C
09.07.2012 21:01 20,3 C 61 % 1010,2 hPa 0,0 l/m 5,0 km/h (1 Bft) W-SW 247 12,5 C 20,3 C
09.07.2012 21:06 20,1 C 61 % 1010,2 hPa 0,0 l/m 4,3 km/h (1 Bft) W 270 12,3 C 20,1 C
09.07.2012 21:11 19,9 C 62 % 1010,3 hPa 0,0 l/m 2,5 km/h (1 Bft) W 270 12,4 C 19,9 C
09.07.2012 21:16 19,8 C 63 % 1010,3 hPa 0,0 l/m 2,5 km/h (1 Bft) W 270 12,5 C 19,8 C
09.07.2012 21:21 19,6 C 63 % 1010,4 hPa 0,0 l/m 5,4 km/h (1 Bft) W-SW 247 12,4 C 19,6 C
09.07.2012 21:26 19,5 C 64 % 1010,5 hPa 0,0 l/m 6,1 km/h (2 Bft) W-SW 247 12,5 C 19,5 C
09.07.2012 21:31 19,4 C 64 % 1010,6 hPa 0,0 l/m 3,6 km/h (1 Bft) W-SW 247 12,4 C 19,4 C
09.07.2012 21:36 19,3 C 65 % 1010,8 hPa 0,0 l/m 6,5 km/h (2 Bft) W 270 12,6 C 19,3 C
09.07.2012 21:41 19,1 C 65 % 1010,9 hPa 0,0 l/m 2,9 km/h (1 Bft) W 270 12,4 C 19,1 C
09.07.2012 21:46 18,9 C 66 % 1010,8 hPa 0,0 l/m 1,4 km/h (1 Bft) W 270 12,4 C 18,9 C
09.07.2012 21:51 18,9 C 66 % 1010,8 hPa 0,0 l/m 0,0 km/h (0 Bft) W 270 12,4 C 18,9 C
09.07.2012 21:56 18,8 C 67 % 1010,8 hPa 0,0 l/m 5,8 km/h (2 Bft) W-SW 247 12,5 C 18,8 C
09.07.2012 22:01 18,6 C 67 % 1010,8 hPa 0,0 l/m 4,3 km/h (1 Bft) W 270 12,3 C 18,6 C
09.07.2012 22:06 18,6 C 67 % 1011,0 hPa 0,0 l/m 9,4 km/h (2 Bft) W-SW 247 12,3 C 18,6 C
09.07.2012 22:11 18,6 C 66 % 1011,1 hPa 0,0 l/m 6,5 km/h (2 Bft) W-SW 247 12,1 C 18,6 C
09.07.2012 22:16 18,5 C 66 % 1011,1 hPa 0,0 l/m 5,8 km/h (2 Bft) W-SW 247 12,0 C 18,5 C
09.07.2012 22:21 18,4 C 66 % 1011,1 hPa 0,0 l/m 9,4 km/h (2 Bft) W-SW 247 11,9 C 18,4 C
09.07.2012 22:26 18,3 C 66 % 1011,2 hPa 0,0 l/m 6,1 km/h (2 Bft) W 270 11,8 C 18,3 C
09.07.2012 22:31 18,2 C 67 % 1011,2 hPa 0,0 l/m 7,2 km/h (2 Bft) W 270 12,0 C 18,2 C
09.07.2012 22:36 18,1 C 67 % 1011,3 hPa 0,0 l/m 8,6 km/h (2 Bft) W-SW 247 11,9 C 18,1 C
09.07.2012 22:41 18,0 C 67 % 1011,4 hPa 0,0 l/m 4,0 km/h (1 Bft) NW 315 11,8 C 18,0 C
09.07.2012 22:46 17,9 C 68 % 1011,6 hPa 0,0 l/m 6,1 km/h (2 Bft) W-NW 292 11,9 C 17,9 C
09.07.2012 22:51 17,8 C 69 % 1011,5 hPa 0,0 l/m 4,0 km/h (1 Bft) W 270 12,0 C 17,8 C
09.07.2012 22:56 17,6 C 69 % 1011,5 hPa 0,0 l/m 4,0 km/h (1 Bft) W-NW 292 11,8 C 17,6 C
09.07.2012 23:01 17,5 C 69 % 1011,4 hPa 0,0 l/m 1,4 km/h (1 Bft) W-NW 292 11,7 C 17,5 C
09.07.2012 23:06 17,5 C 69 % 1011,5 hPa 0,0 l/m 3,6 km/h (1 Bft) W-NW 292 11,7 C 17,5 C
09.07.2012 23:11 17,4 C 70 % 1011,6 hPa 0,0 l/m 0,0 km/h (0 Bft) W-NW 292 11,9 C 17,4 C
09.07.2012 23:16 17,4 C 70 % 1011,7 hPa 0,0 l/m 1,4 km/h (1 Bft) W-NW 292 11,9 C 17,4 C
09.07.2012 23:21 17,3 C 71 % 1011,8 hPa 0,0 l/m 0,0 km/h (0 Bft) W-NW 292 12,0 C 17,3 C
09.07.2012 23:26 17,3 C 71 % 1011,8 hPa 0,0 l/m 2,9 km/h (1 Bft) W 270 12,0 C 17,3 C
09.07.2012 23:31 17,3 C 71 % 1011,8 hPa 0,0 l/m 0,0 km/h (0 Bft) W 270 12,0 C 17,3 C
09.07.2012 23:36 17,3 C 71 % 1011,8 hPa 0,0 l/m 2,5 km/h (1 Bft) W 270 12,0 C 17,3 C
09.07.2012 23:41 17,3 C 71 % 1012,0 hPa 0,0 l/m 2,9 km/h (1 Bft) W 270 12,0 C 17,3 C
09.07.2012 23:46 17,3 C 71 % 1011,9 hPa 0,0 l/m 3,6 km/h (1 Bft) W 270 12,0 C 17,3 C
09.07.2012 23:51 17,3 C 71 % 1011,9 hPa 0,0 l/m 0,0 km/h (0 Bft) W 270 12,0 C 17,3 C
09.07.2012 23:56 17,2 C 72 % 1011,9 hPa 0,0 l/m 3,2 km/h (1 Bft) W-SW 247 12,1 C 17,2 C
_ Min-Zeit 04:56 14:51 00:01 - 20:06 - - 14:26 04:56
Minimum _ 15,9 C 43 % 1008,7 hPa - 0,0 km/h (0 Bft) - - 11,5 C 15,9 C
_ Max-Zeit 06:31 03:51 23:41 00:01 10:06 - - 06:06 06:31
Maximum _ 28,4 C 82 % 1012,0 hPa 0,0 l/m 34,2 km/h
W-SW (5 Bft)
- - 15,6 C 28,4 C
Durchschnitt _ 20,6 C 63 % 1010,3 hPa #0,0 l/m 11,1 km/h (2 Bft) W-SW - 13,0 C 20,6 C
(c) by David Heller